< < Back
Terminal Aerodrome Forecast


Current Version              Previous Versions:   1  2  3  4  5  6  7  8  9  

Terminal Aerodrome Forecast

939
FTUS42 KCHS 281726
TAFCHS
TAF
KCHS 281726Z 2818/2918 13011KT P6SM SCT035
     FM290030 VRB03KT P6SM FEW030
     FM291400 08008KT P6SM SCT030=

Latest METAR

990
SAUS80 KWBC 281800 RRA
MTRCHS
METAR KCHS 281756Z 15005G15KT 10SM SCT040 BKN250 28/18 A3021 RMK AO2
SLP229 T02830183 10289 20233 58008


USA.gov is the U.S. government's official web portal to all federal, state and local government web resources and services.